createdAt,value
2024-03-16T00:01:59.689Z,8.46
2024-03-16T00:04:27.761Z,8.46
2024-03-16T00:06:57.174Z,8.45
2024-03-16T00:09:25.989Z,8.44
2024-03-16T00:11:54.690Z,8.44
2024-03-16T00:14:22.684Z,8.46
2024-03-16T00:16:50.545Z,8.46
2024-03-16T00:19:19.347Z,8.47
2024-03-16T00:21:47.514Z,8.43
2024-03-16T00:24:15.885Z,8.43
2024-03-16T00:26:44.352Z,8.38
2024-03-16T00:29:12.930Z,8.37
2024-03-16T00:31:41.018Z,8.37
2024-03-16T00:34:09.805Z,8.38
2024-03-16T00:36:38.280Z,8.37
2024-03-16T00:39:16.839Z,8.36
2024-03-16T00:41:45.850Z,8.34
2024-03-16T00:44:13.647Z,8.36
2024-03-16T00:46:41.556Z,8.38
2024-03-16T00:49:09.505Z,8.39
2024-03-16T00:51:37.623Z,8.39
2024-03-16T00:54:05.626Z,8.36
2024-03-16T00:56:33.481Z,8.34
2024-03-16T00:59:01.352Z,8.31
2024-03-16T01:01:30.553Z,8.32
2024-03-16T01:03:58.574Z,8.35
2024-03-16T01:06:26.604Z,8.40
2024-03-16T01:08:54.627Z,8.45
2024-03-16T01:11:25.410Z,8.47
2024-03-16T01:13:54.073Z,8.51
2024-03-16T01:16:21.986Z,8.52
2024-03-16T01:18:50.076Z,8.55
2024-03-16T01:21:18.082Z,8.55
2024-03-16T01:23:46.419Z,8.57
2024-03-16T01:26:15.000Z,8.57
2024-03-16T01:28:42.908Z,8.56
2024-03-16T01:31:14.491Z,8.58
2024-03-16T01:33:43.201Z,8.57
2024-03-16T01:36:11.226Z,8.58
2024-03-16T01:38:39.022Z,8.60
2024-03-16T01:41:06.859Z,8.64
2024-03-16T01:43:34.783Z,8.65
2024-03-16T01:46:02.684Z,8.65
2024-03-16T01:48:30.894Z,8.67
2024-03-16T01:50:59.030Z,8.74
2024-03-16T01:53:26.835Z,8.78
2024-03-16T01:55:54.656Z,8.81
2024-03-16T01:58:22.350Z,8.84
2024-03-16T02:00:50.386Z,8.87
2024-03-16T02:03:18.361Z,8.90
2024-03-16T02:05:47.532Z,8.91
2024-03-16T02:08:17.306Z,8.91
2024-03-16T02:10:45.258Z,8.92
2024-03-16T02:13:13.158Z,8.92
2024-03-16T02:15:41.126Z,8.93
2024-03-16T02:18:10.954Z,8.92
2024-03-16T02:20:39.010Z,8.95
2024-03-16T02:23:06.818Z,8.96
2024-03-16T02:25:35.309Z,8.97
2024-03-16T02:28:03.603Z,8.98
2024-03-16T02:30:32.044Z,8.99
2024-03-16T02:33:00.159Z,8.97
2024-03-16T02:35:28.193Z,8.95
2024-03-16T02:37:55.952Z,8.96
2024-03-16T02:40:24.336Z,8.97
2024-03-16T02:42:52.284Z,8.95
2024-03-16T02:45:20.163Z,8.93
2024-03-16T02:47:48.085Z,8.91
2024-03-16T02:50:16.007Z,8.85
2024-03-16T02:52:43.760Z,8.80
2024-03-16T02:55:11.787Z,8.79
2024-03-16T02:57:40.089Z,8.76
2024-03-16T03:00:12.083Z,8.72
2024-03-16T03:02:40.255Z,8.70
2024-03-16T03:05:12.677Z,8.68
2024-03-16T03:07:40.923Z,8.65
2024-03-16T03:10:09.859Z,8.61
2024-03-16T03:12:38.191Z,8.62
2024-03-16T03:15:07.900Z,8.61
2024-03-16T03:17:35.705Z,8.62
2024-03-16T03:20:06.764Z,8.62
2024-03-16T03:22:34.536Z,8.61
2024-03-16T03:25:02.553Z,8.63
2024-03-16T03:27:30.666Z,8.61
2024-03-16T03:29:59.162Z,8.57
2024-03-16T03:32:27.166Z,8.55
2024-03-16T03:34:54.997Z,8.53
2024-03-16T03:37:23.062Z,8.51
2024-03-16T03:39:54.045Z,8.53
2024-03-16T03:42:26.836Z,8.56
2024-03-16T03:45:26.133Z,8.53
2024-03-16T03:48:15.765Z,8.51
2024-03-16T03:50:44.753Z,8.51
2024-03-16T03:53:12.616Z,8.53
2024-03-16T03:55:40.503Z,8.55
2024-03-16T03:58:08.717Z,8.55
2024-03-16T04:00:36.779Z,8.58
2024-03-16T04:03:07.733Z,8.61
2024-03-16T04:05:35.744Z,8.63
2024-03-16T04:08:07.284Z,8.64
2024-03-16T04:10:38.758Z,8.63
2024-03-16T04:13:06.578Z,8.61
2024-03-16T04:15:34.500Z,8.63
2024-03-16T04:18:02.364Z,8.67
2024-03-16T04:20:30.238Z,8.71
2024-03-16T04:22:58.326Z,8.71
2024-03-16T04:25:26.081Z,8.69
2024-03-16T04:27:54.046Z,8.66
2024-03-16T04:30:22.292Z,8.64
2024-03-16T04:32:50.210Z,8.62
2024-03-16T04:35:18.629Z,8.61
2024-03-16T04:37:46.496Z,8.62
2024-03-16T04:40:14.507Z,8.62
2024-03-16T04:42:43.475Z,8.62
2024-03-16T04:45:11.479Z,8.60
2024-03-16T04:47:39.736Z,8.57
2024-03-16T04:50:08.295Z,8.57
2024-03-16T04:52:36.164Z,8.56
2024-03-16T04:55:04.726Z,8.55
2024-03-16T04:57:32.712Z,8.53
2024-03-16T05:00:01.080Z,8.48
2024-03-16T05:02:30.070Z,8.44
2024-03-16T05:04:59.628Z,8.41
2024-03-16T05:07:27.747Z,8.39
2024-03-16T05:09:55.678Z,8.37
2024-03-16T05:12:24.001Z,8.39
2024-03-16T05:14:51.960Z,8.41
2024-03-16T05:17:19.833Z,8.43
2024-03-16T05:19:49.352Z,8.43
2024-03-16T05:22:17.429Z,8.47
2024-03-16T05:24:45.416Z,8.47
2024-03-16T05:27:14.488Z,8.46
2024-03-16T05:29:42.325Z,8.44
2024-03-16T05:32:10.289Z,8.43
2024-03-16T05:34:40.617Z,8.44
2024-03-16T05:37:08.649Z,8.42
2024-03-16T05:39:36.695Z,8.41
2024-03-16T05:42:04.728Z,8.43
2024-03-16T05:44:32.695Z,8.43
2024-03-16T05:47:00.569Z,8.43
2024-03-16T05:49:28.440Z,8.46
2024-03-16T05:51:56.559Z,8.46
2024-03-16T05:54:24.695Z,8.48
2024-03-16T05:56:52.533Z,8.49
2024-03-16T05:59:20.301Z,8.54
2024-03-16T06:01:48.370Z,8.58
2024-03-16T06:04:18.320Z,8.61
2024-03-16T06:06:47.717Z,8.61
2024-03-16T06:09:15.760Z,8.64
2024-03-16T06:11:43.626Z,8.68
2024-03-16T06:14:11.641Z,8.72
2024-03-16T06:16:41.256Z,8.75
2024-03-16T06:19:09.324Z,8.74
2024-03-16T06:21:37.426Z,8.78
2024-03-16T06:24:06.067Z,8.77
2024-03-16T06:26:42.470Z,8.82
2024-03-16T06:29:10.733Z,8.83
2024-03-16T06:31:40.065Z,8.82
2024-03-16T06:34:08.420Z,8.82
2024-03-16T06:36:37.878Z,8.85
2024-03-16T06:39:12.671Z,8.86
2024-03-16T06:41:40.781Z,8.88
2024-03-16T06:44:08.614Z,8.90
2024-03-16T06:46:36.496Z,8.90
2024-03-16T06:49:07.734Z,8.90
2024-03-16T06:51:36.549Z,8.89
2024-03-16T06:54:07.973Z,8.92
2024-03-16T06:56:35.936Z,8.94
2024-03-16T06:59:03.792Z,8.98
2024-03-16T07:01:31.886Z,9.01
2024-03-16T07:03:59.986Z,9.04
2024-03-16T07:06:28.006Z,9.09
2024-03-16T07:08:57.589Z,9.07
2024-03-16T07:11:25.417Z,9.13
2024-03-16T07:13:55.317Z,9.17
2024-03-16T07:16:23.552Z,9.22
2024-03-16T07:18:51.688Z,9.27
2024-03-16T07:21:25.685Z,9.36
2024-03-16T07:23:55.361Z,9.41
2024-03-16T07:26:23.226Z,9.45
2024-03-16T07:28:51.287Z,9.46
2024-03-16T07:31:19.074Z,9.48
2024-03-16T07:33:46.956Z,9.53
2024-03-16T07:36:14.793Z,9.60
2024-03-16T07:38:42.672Z,9.66
2024-03-16T07:41:10.530Z,9.71
2024-03-16T07:43:38.387Z,9.75
2024-03-16T07:46:06.253Z,9.77
2024-03-16T07:48:34.132Z,9.80
2024-03-16T07:51:05.264Z,9.84
2024-03-16T07:53:33.358Z,9.87
2024-03-16T07:56:01.212Z,9.89
2024-03-16T07:58:29.612Z,9.93
2024-03-16T08:00:57.770Z,9.96
2024-03-16T08:03:26.036Z,9.99
2024-03-16T08:05:54.103Z,10.03
2024-03-16T08:08:23.777Z,10.01
2024-03-16T08:10:55.190Z,9.96
2024-03-16T08:13:23.088Z,9.95
2024-03-16T08:15:51.328Z,9.95
2024-03-16T08:18:19.550Z,9.96
2024-03-16T08:20:47.645Z,9.96
2024-03-16T08:23:16.225Z,9.93
2024-03-16T08:25:44.250Z,9.90
2024-03-16T08:28:12.494Z,9.89
2024-03-16T08:30:40.787Z,9.88
2024-03-16T08:33:08.664Z,9.78
2024-03-16T08:35:36.577Z,9.74
2024-03-16T08:38:05.970Z,9.75
2024-03-16T08:40:34.250Z,9.75
2024-03-16T08:43:02.482Z,9.74
2024-03-16T08:45:32.003Z,9.76
2024-03-16T08:48:00.071Z,9.77
2024-03-16T08:50:28.955Z,9.77
2024-03-16T08:52:57.569Z,9.82
2024-03-16T08:55:26.803Z,9.88
2024-03-16T08:57:54.991Z,9.95
2024-03-16T09:00:22.910Z,10.05
2024-03-16T09:02:52.368Z,10.16
2024-03-16T09:05:22.293Z,10.20
2024-03-16T09:07:50.197Z,10.19
2024-03-16T09:10:18.923Z,10.16
2024-03-16T09:12:48.372Z,10.16
2024-03-16T09:15:16.876Z,10.19
2024-03-16T09:17:45.080Z,10.24
2024-03-16T09:20:13.008Z,10.25
2024-03-16T09:22:40.768Z,10.22
2024-03-16T09:25:10.107Z,10.24
2024-03-16T09:27:38.745Z,10.31
2024-03-16T09:30:08.670Z,10.39
2024-03-16T09:32:38.275Z,10.50
2024-03-16T09:35:13.328Z,10.61
2024-03-16T09:37:41.479Z,10.68
2024-03-16T09:40:14.972Z,10.75
2024-03-16T09:42:43.190Z,10.86
2024-03-16T09:45:18.803Z,11.00
2024-03-16T09:47:48.339Z,11.11
2024-03-16T09:50:17.402Z,11.22
2024-03-16T09:52:50.288Z,11.32
2024-03-16T09:55:18.321Z,11.39
2024-03-16T09:57:46.339Z,11.48
2024-03-16T10:00:15.808Z,11.58
2024-03-16T10:02:43.797Z,11.68
2024-03-16T10:05:12.880Z,11.78
2024-03-16T10:07:41.071Z,11.86
2024-03-16T10:10:19.039Z,11.95
2024-03-16T10:12:47.465Z,12.03
2024-03-16T10:15:24.068Z,12.08
2024-03-16T10:17:52.083Z,12.14
2024-03-16T10:20:20.095Z,12.17
2024-03-16T10:22:49.257Z,12.23
2024-03-16T10:25:18.242Z,12.31
2024-03-16T10:27:47.235Z,12.41
2024-03-16T10:30:17.497Z,12.50
2024-03-16T10:32:50.485Z,12.59
2024-03-16T10:35:26.435Z,12.70
2024-03-16T10:37:54.571Z,12.78
2024-03-16T10:40:25.968Z,12.85
2024-03-16T10:42:54.415Z,12.93
2024-03-16T10:45:22.261Z,12.99
2024-03-16T10:47:55.147Z,13.07
2024-03-16T10:50:28.751Z,13.13
2024-03-16T10:52:57.511Z,13.23
2024-03-16T10:55:28.501Z,13.35
2024-03-16T10:57:56.544Z,13.47
2024-03-16T11:00:36.481Z,13.60
2024-03-16T11:03:30.679Z,13.68
2024-03-16T11:06:13.021Z,13.79
2024-03-16T11:08:43.658Z,13.94
2024-03-16T11:11:16.228Z,14.10
2024-03-16T11:13:58.253Z,14.28
2024-03-16T11:16:33.966Z,14.44
2024-03-16T11:19:08.465Z,14.60
2024-03-16T11:21:39.340Z,14.74
2024-03-16T11:24:14.961Z,14.87
2024-03-16T11:26:44.912Z,14.97
2024-03-16T11:29:17.223Z,15.08
2024-03-16T11:31:49.916Z,15.16
2024-03-16T11:34:18.164Z,15.23
2024-03-16T11:36:50.198Z,15.30
2024-03-16T11:39:25.329Z,15.34
2024-03-16T11:41:56.215Z,15.37
2024-03-16T11:44:24.352Z,15.44
2024-03-16T11:46:54.914Z,15.52
2024-03-16T11:49:22.776Z,15.57
2024-03-16T11:51:55.952Z,15.66
2024-03-16T11:54:24.879Z,15.72
2024-03-16T11:56:53.201Z,15.75
2024-03-16T11:59:21.002Z,15.85
2024-03-16T12:01:53.689Z,15.93
2024-03-16T12:04:25.713Z,16.01
2024-03-16T12:06:58.223Z,16.08
2024-03-16T12:09:35.556Z,16.16
2024-03-16T12:12:09.069Z,16.22
2024-03-16T12:14:43.077Z,16.24
2024-03-16T12:17:12.213Z,16.23
2024-03-16T12:19:40.187Z,16.23
2024-03-16T12:22:16.399Z,16.22
2024-03-16T12:24:44.549Z,16.22
2024-03-16T12:27:13.715Z,16.19
2024-03-16T12:29:44.238Z,16.19
2024-03-16T12:32:12.119Z,16.17
2024-03-16T12:34:40.288Z,16.12
2024-03-16T12:37:09.235Z,16.08
2024-03-16T12:39:37.664Z,16.01
2024-03-16T12:42:07.467Z,15.95
2024-03-16T12:44:35.214Z,15.90
2024-03-16T12:47:03.197Z,15.89
2024-03-16T12:49:31.139Z,15.89
2024-03-16T12:51:59.186Z,15.91
2024-03-16T12:54:27.200Z,15.96
2024-03-16T12:56:55.109Z,15.97
2024-03-16T12:59:22.936Z,15.97
2024-03-16T13:01:50.683Z,15.97
2024-03-16T13:04:20.104Z,15.98
2024-03-16T13:06:48.098Z,16.00
2024-03-16T13:09:17.324Z,16.02
2024-03-16T13:11:45.227Z,16.04
2024-03-16T13:14:13.305Z,16.07
2024-03-16T13:16:41.243Z,16.08
2024-03-16T13:19:09.345Z,16.10
2024-03-16T13:21:37.882Z,16.15
2024-03-16T13:24:07.741Z,16.22
2024-03-16T13:26:35.701Z,16.29
2024-03-16T13:29:05.255Z,16.35
2024-03-16T13:31:33.482Z,16.40
2024-03-16T13:34:01.585Z,16.47
2024-03-16T13:36:30.366Z,16.52
2024-03-16T13:38:58.237Z,16.56
2024-03-16T13:41:26.627Z,16.62
2024-03-16T13:43:55.789Z,16.67
2024-03-16T13:46:23.861Z,16.67
2024-03-16T13:49:00.121Z,16.65
2024-03-16T13:51:30.599Z,16.60
2024-03-16T13:53:58.706Z,16.53
2024-03-16T13:56:27.276Z,16.43
2024-03-16T13:58:57.415Z,16.33
2024-03-16T14:01:25.999Z,16.23
2024-03-16T14:03:59.953Z,16.16
2024-03-16T14:06:29.304Z,16.11
2024-03-16T14:08:57.211Z,16.06
2024-03-16T14:11:25.259Z,16.03
2024-03-16T14:13:55.598Z,16.01
2024-03-16T14:16:23.436Z,16.01
2024-03-16T14:18:51.194Z,16.02
2024-03-16T14:21:19.010Z,16.03
2024-03-16T14:23:46.826Z,16.05
2024-03-16T14:26:14.695Z,16.06
2024-03-16T14:28:42.496Z,16.08
2024-03-16T14:31:10.634Z,16.11
2024-03-16T14:33:39.545Z,16.14
2024-03-16T14:36:08.375Z,16.15
2024-03-16T14:38:37.816Z,16.16
2024-03-16T14:41:05.780Z,16.16
2024-03-16T14:43:34.509Z,16.16
2024-03-16T14:46:02.958Z,16.16
2024-03-16T14:48:31.144Z,16.14
2024-03-16T14:50:59.080Z,16.12
2024-03-16T14:53:27.251Z,16.12
2024-03-16T14:55:55.160Z,16.09
2024-03-16T14:58:22.897Z,16.08
2024-03-16T15:00:50.709Z,16.06
2024-03-16T15:03:18.620Z,15.99
2024-03-16T15:05:48.379Z,15.88
2024-03-16T15:08:16.441Z,15.72
2024-03-16T15:10:45.514Z,15.55
2024-03-16T15:13:13.366Z,15.38
2024-03-16T15:15:41.506Z,15.20
2024-03-16T15:18:10.421Z,15.05
2024-03-16T15:20:39.008Z,14.92
2024-03-16T15:23:07.688Z,14.84
2024-03-16T15:25:52.354Z,14.77
2024-03-16T15:28:29.836Z,14.70
2024-03-16T15:30:57.623Z,14.66
2024-03-16T15:33:27.874Z,14.64
2024-03-16T15:35:56.660Z,14.62
2024-03-16T15:38:24.499Z,14.58
2024-03-16T15:40:52.369Z,14.55
2024-03-16T15:43:20.224Z,14.50
2024-03-16T15:45:48.347Z,14.44
2024-03-16T15:48:18.104Z,14.40
2024-03-16T15:50:45.979Z,14.35
2024-03-16T15:53:14.503Z,14.33
2024-03-16T15:55:43.127Z,14.31
2024-03-16T15:58:11.406Z,14.29
2024-03-16T16:00:42.181Z,14.27
2024-03-16T16:03:10.135Z,14.26
2024-03-16T16:05:38.884Z,14.25
2024-03-16T16:08:06.749Z,14.23
2024-03-16T16:10:34.528Z,14.22
2024-03-16T16:13:02.789Z,14.18
2024-03-16T16:15:30.497Z,14.13
2024-03-16T16:17:58.355Z,14.11
2024-03-16T16:20:26.194Z,14.08
2024-03-16T16:22:54.663Z,14.04
2024-03-16T16:25:26.164Z,13.98
2024-03-16T16:27:53.989Z,13.91
2024-03-16T16:30:21.849Z,13.87
2024-03-16T16:32:51.866Z,13.82
2024-03-16T16:35:19.666Z,13.73
2024-03-16T16:37:47.507Z,13.61
2024-03-16T16:40:15.352Z,13.48
2024-03-16T16:42:43.242Z,13.33
2024-03-16T16:45:11.087Z,13.20
2024-03-16T16:47:38.855Z,13.11
2024-03-16T16:50:08.008Z,12.99
2024-03-16T16:52:35.815Z,12.86
2024-03-16T16:55:05.189Z,12.67
2024-03-16T16:57:34.676Z,12.51
2024-03-16T17:00:09.350Z,12.35
2024-03-16T17:02:39.243Z,12.22
2024-03-16T17:05:07.880Z,12.12
2024-03-16T17:07:35.808Z,12.04
2024-03-16T17:10:10.068Z,11.97
2024-03-16T17:12:37.784Z,11.90
2024-03-16T17:15:09.981Z,11.85
2024-03-16T17:17:37.926Z,11.78
2024-03-16T17:20:06.606Z,11.72
2024-03-16T17:22:34.819Z,11.64
2024-03-16T17:25:02.755Z,11.58
2024-03-16T17:27:30.716Z,11.53
2024-03-16T17:29:58.579Z,11.47
2024-03-16T17:32:26.460Z,11.43
2024-03-16T17:34:55.246Z,11.39
2024-03-16T17:37:23.104Z,11.35
2024-03-16T17:39:50.908Z,11.30
2024-03-16T17:42:18.843Z,11.22
2024-03-16T17:44:46.709Z,11.12
2024-03-16T17:47:14.584Z,11.07
2024-03-16T17:49:42.442Z,10.98
2024-03-16T17:52:10.137Z,10.90
2024-03-16T17:54:37.965Z,10.78
2024-03-16T17:57:06.548Z,10.69
2024-03-16T17:59:34.924Z,10.61
2024-03-16T18:02:05.141Z,10.54
2024-03-16T18:04:32.905Z,10.45
2024-03-16T18:07:01.186Z,10.40
2024-03-16T18:09:28.928Z,10.32
2024-03-16T18:11:58.224Z,10.24
2024-03-16T18:14:26.016Z,10.17
2024-03-16T18:16:53.916Z,10.11
2024-03-16T18:19:21.844Z,10.04
2024-03-16T18:21:52.710Z,9.90
2024-03-16T18:24:20.438Z,9.80
2024-03-16T18:26:49.182Z,9.73
2024-03-16T18:29:17.092Z,9.67
2024-03-16T18:31:45.570Z,9.64
2024-03-16T18:34:13.438Z,9.63
2024-03-16T18:36:42.075Z,9.62
2024-03-16T18:39:15.419Z,9.59
2024-03-16T18:41:43.380Z,9.57
2024-03-16T18:44:11.867Z,9.53
2024-03-16T18:46:39.834Z,9.48
2024-03-16T18:49:08.170Z,9.44
2024-03-16T18:51:36.461Z,9.37
2024-03-16T18:54:05.312Z,9.31
2024-03-16T18:56:33.359Z,9.22
2024-03-16T18:59:02.496Z,9.14
2024-03-16T19:01:30.509Z,9.09
2024-03-16T19:03:59.198Z,9.06
2024-03-16T19:06:27.476Z,9.01
2024-03-16T19:08:56.904Z,8.95
2024-03-16T19:11:25.367Z,8.89
2024-03-16T19:13:54.286Z,8.85
2024-03-16T19:16:22.207Z,8.80
2024-03-16T19:18:50.071Z,8.77
2024-03-16T19:21:18.353Z,8.72
2024-03-16T19:23:46.122Z,8.69
2024-03-16T19:26:13.976Z,8.68
2024-03-16T19:28:41.846Z,8.66
2024-03-16T19:31:09.716Z,8.63
2024-03-16T19:33:37.931Z,8.59
2024-03-16T19:36:06.409Z,8.55
2024-03-16T19:38:34.231Z,8.51
2024-03-16T19:41:02.915Z,8.47
2024-03-16T19:43:30.989Z,8.43
2024-03-16T19:45:58.846Z,8.41
2024-03-16T19:48:26.730Z,8.37
2024-03-16T19:50:54.584Z,8.34
2024-03-16T19:53:22.651Z,8.29
2024-03-16T19:55:50.520Z,8.25
2024-03-16T19:58:18.391Z,8.20
2024-03-16T20:00:46.429Z,8.16
2024-03-16T20:03:14.325Z,8.08
2024-03-16T20:05:42.702Z,8.03
2024-03-16T20:08:10.567Z,7.98
2024-03-16T20:10:38.340Z,7.93
2024-03-16T20:13:06.090Z,7.89
2024-03-16T20:15:34.850Z,7.87
2024-03-16T20:18:02.768Z,7.83
2024-03-16T20:20:30.714Z,7.79
2024-03-16T20:22:58.578Z,7.74
2024-03-16T20:25:26.458Z,7.71
2024-03-16T20:28:00.052Z,7.66
2024-03-16T20:30:27.888Z,7.64
2024-03-16T20:32:56.955Z,7.61
2024-03-16T20:35:25.797Z,7.55
2024-03-16T20:37:53.661Z,7.51
2024-03-16T20:40:22.108Z,7.47
2024-03-16T20:42:50.937Z,7.43
2024-03-16T20:45:18.806Z,7.40
2024-03-16T20:47:46.663Z,7.38
2024-03-16T20:50:14.432Z,7.37
2024-03-16T20:52:42.426Z,7.33
2024-03-16T20:55:10.420Z,7.31
2024-03-16T20:57:38.360Z,7.28
2024-03-16T21:00:10.393Z,7.24
2024-03-16T21:02:38.872Z,7.20
2024-03-16T21:05:07.082Z,7.17
2024-03-16T21:07:35.011Z,7.15
2024-03-16T21:10:05.367Z,7.14
2024-03-16T21:12:34.515Z,7.11
2024-03-16T21:15:05.108Z,7.09
2024-03-16T21:17:35.081Z,7.05
2024-03-16T21:20:05.706Z,7.02
2024-03-16T21:22:37.494Z,7.02
2024-03-16T21:25:07.374Z,6.98
2024-03-16T21:27:35.149Z,6.98
2024-03-16T21:30:03.364Z,6.96
2024-03-16T21:32:31.311Z,6.93
2024-03-16T21:37:27.530Z,6.87
2024-03-16T21:39:55.397Z,6.85
2024-03-16T21:42:23.265Z,6.82
2024-03-16T21:44:51.125Z,6.79
2024-03-16T21:47:18.992Z,6.77
2024-03-16T21:49:46.858Z,6.74
2024-03-16T21:52:15.050Z,6.70
2024-03-16T21:54:44.011Z,6.65
2024-03-16T21:57:11.990Z,6.61
2024-03-16T21:59:39.665Z,6.58
2024-03-16T22:02:08.652Z,6.56
2024-03-16T22:04:36.662Z,6.53
2024-03-16T22:07:05.401Z,6.50
2024-03-16T22:09:33.164Z,6.46
2024-03-16T22:12:01.035Z,6.43
2024-03-16T22:14:31.622Z,6.39
2024-03-16T22:17:01.089Z,6.35
2024-03-16T22:19:29.134Z,6.31
2024-03-16T22:21:56.930Z,6.28
2024-03-16T22:24:24.765Z,6.23
2024-03-16T22:26:53.661Z,6.17
2024-03-16T22:29:21.523Z,6.11
2024-03-16T22:31:49.387Z,6.09
2024-03-16T22:34:17.260Z,6.06
2024-03-16T22:36:45.117Z,6.05
2024-03-16T22:39:13.500Z,6.03
2024-03-16T22:41:41.361Z,6.01
2024-03-16T22:44:09.330Z,6.00
2024-03-16T22:46:37.245Z,5.98
2024-03-16T22:49:05.166Z,5.96
2024-03-16T22:51:32.968Z,5.94
2024-03-16T22:54:00.794Z,5.93
2024-03-16T22:56:28.612Z,5.90
2024-03-16T22:58:57.654Z,5.88
2024-03-16T23:01:25.623Z,5.87
2024-03-16T23:03:53.484Z,5.86
2024-03-16T23:06:22.889Z,5.84
2024-03-16T23:08:52.528Z,5.82
2024-03-16T23:11:20.918Z,5.78
2024-03-16T23:13:48.743Z,5.74
2024-03-16T23:16:17.324Z,5.71
2024-03-16T23:18:45.560Z,5.69
2024-03-16T23:21:13.566Z,5.69
2024-03-16T23:23:44.295Z,5.68
2024-03-16T23:26:15.297Z,5.66
2024-03-16T23:28:43.709Z,5.63
2024-03-16T23:31:11.763Z,5.61
2024-03-16T23:33:39.725Z,5.57
2024-03-16T23:36:08.898Z,5.55
2024-03-16T23:38:36.869Z,5.54
2024-03-16T23:41:05.296Z,5.52
2024-03-16T23:43:33.180Z,5.49
2024-03-16T23:46:01.045Z,5.49
2024-03-16T23:48:28.900Z,5.52
2024-03-16T23:51:00.353Z,5.55
2024-03-16T23:53:29.124Z,5.57
2024-03-16T23:55:56.998Z,5.62
2024-03-16T23:58:24.871Z,5.66
